Time;durP1;ratioP1;P1;durP2;ratioP2;P2;SDS_P1;SDS_P2;PMS_P1;PMS_P2;Temp;Humidity;BMP_temperature;BMP_pressure;BME280_temperature;BME280_humidity;BME280_pressure;Samples;Min_cycle;Max_cycle;Signal;HPM_P1;HPM_P2
2023/09/05 00:05:19;;;;;;;7.9;3.5;;;;;;;11.21;88.84;;;;;
2023/09/05 00:16:18;;;;;;;8.6;3.9;;;;;;;11.12;89.11;;;;;
2023/09/05 00:26:18;;;;;;;8.6;3.9;;;;;;;11.04;89.44;;;;;
2023/09/05 00:37:23;;;;;;;8.6;3.9;;;;;;;10.97;89.48;;;;;
2023/09/05 00:47:22;;;;;;;7.8;4.5;;;;;;;10.83;90.17;;;;;
2023/09/05 00:57:18;;;;;;;7.8;4.5;;;;;;;10.86;90.7;;;;;
2023/09/05 01:08:18;;;;;;;7.8;4.5;;;;;;;10.76;90.13;;;;;
2023/09/05 01:18:18;;;;;;;9.5;4;;;;;;;10.58;90.51;;;;;
2023/09/05 01:28:23;;;;;;;9.5;4;;;;;;;10.52;90.04;;;;;
2023/09/05 01:39:18;;;;;;;9.5;4;;;;;;;10.43;89.99;;;;;
2023/09/05 01:50:18;;;;;;;7.4;4.1;;;;;;;10.39;90.88;;;;;
2023/09/05 02:00:18;;;;;;;7.4;4.1;;;;;;;10.33;91.15;;;;;
2023/09/05 02:11:18;;;;;;;7.4;4.1;;;;;;;10.23;90.68;;;;;
2023/09/05 02:21:18;;;;;;;7.9;4.6;;;;;;;10.18;90.59;;;;;
2023/09/05 02:31:18;;;;;;;7.9;4.6;;;;;;;10.16;90.23;;;;;
2023/09/05 02:42:18;;;;;;;7.9;4.6;;;;;;;10.22;90.97;;;;;
2023/09/05 02:53:18;;;;;;;9.9;5.1;;;;;;;10.26;91.33;;;;;
2023/09/05 03:04:18;;;;;;;9.9;5.1;;;;;;;10.08;91.42;;;;;
2023/09/05 03:15:20;;;;;;;9.1;5;;;;;;;9.99;90.98;;;;;
2023/09/05 03:26:19;;;;;;;9.1;5;;;;;;;9.92;91.34;;;;;
2023/09/05 03:37:18;;;;;;;9.1;5;;;;;;;9.85;90.83;;;;;
2023/09/05 03:47:19;;;;;;;9.5;5.6;;;;;;;9.71;90.73;;;;;
2023/09/05 03:58:18;;;;;;;9.5;5.6;;;;;;;9.66;90.76;;;;;
2023/09/05 04:08:18;;;;;;;9.5;5.6;;;;;;;9.63;91.15;;;;;
2023/09/05 04:19:18;;;;;;;7.7;4.6;;;;;;;9.69;90.78;;;;;
2023/09/05 04:29:18;;;;;;;7.7;4.6;;;;;;;9.66;90.72;;;;;
2023/09/05 04:39:18;;;;;;;7.7;4.6;;;;;;;9.58;90.93;;;;;
2023/09/05 04:49:18;;;;;;;8.6;5.2;;;;;;;9.78;91.85;;;;;
2023/09/05 05:00:19;;;;;;;8.6;5.2;;;;;;;10.21;92.07;;;;;
2023/09/05 05:11:18;;;;;;;8.6;5.2;;;;;;;10.6;92.61;;;;;
2023/09/05 05:21:18;;;;;;;9;5.8;;;;;;;11.17;92.42;;;;;
2023/09/05 05:31:18;;;;;;;9;5.8;;;;;;;11.62;92.16;;;;;
2023/09/05 05:41:18;;;;;;;9;5.8;;;;;;;12.09;91.58;;;;;
2023/09/05 05:52:18;;;;;;;12.1;6.5;;;;;;;12.62;90.89;;;;;
2023/09/05 06:02:18;;;;;;;12.1;6.5;;;;;;;13.04;90.13;;;;;
2023/09/05 06:12:19;;;;;;;12.1;6.5;;;;;;;13.52;89.6;;;;;
2023/09/05 06:23:19;;;;;;;12.4;8.9;;;;;;;13.99;88.47;;;;;
2023/09/05 06:33:19;;;;;;;12.4;8.9;;;;;;;14.44;86.68;;;;;
2023/09/05 06:44:18;;;;;;;15.1;9.6;;;;;;;15;86.15;;;;;
2023/09/05 06:54:18;;;;;;;15.1;9.6;;;;;;;15.51;84.07;;;;;
2023/09/05 07:05:18;;;;;;;15.1;9.6;;;;;;;15.91;81.84;;;;;
2023/09/05 07:15:19;;;;;;;11.3;8.2;;;;;;;15.74;81.79;;;;;
2023/09/05 07:26:18;;;;;;;11.3;8.2;;;;;;;16.52;81.39;;;;;
2023/09/05 07:37:19;;;;;;;11.3;8.2;;;;;;;17.11;79.71;;;;;
2023/09/05 07:48:18;;;;;;;11.2;8.1;;;;;;;17.21;77.62;;;;;
2023/09/05 07:59:19;;;;;;;11.2;8.1;;;;;;;17.76;76.31;;;;;
2023/09/05 08:10:18;;;;;;;11.2;8.1;;;;;;;18.32;76.63;;;;;
2023/09/05 08:21:19;;;;;;;13.5;8.5;;;;;;;18.66;74.81;;;;;
2023/09/05 08:32:19;;;;;;;13.5;8.5;;;;;;;19.12;73.78;;;;;
2023/09/05 08:42:21;;;;;;;13.5;8.5;;;;;;;19.47;71.55;;;;;
2023/09/05 08:53:18;;;;;;;9.6;7.5;;;;;;;19.88;70.99;;;;;
2023/09/05 09:04:21;;;;;;;9.6;7.5;;;;;;;20.18;67.98;;;;;
2023/09/05 09:15:18;;;;;;;9.1;5.9;;;;;;;20.24;65.31;;;;;
2023/09/05 09:25:20;;;;;;;9.1;5.9;;;;;;;20.77;64.36;;;;;
2023/09/05 09:35:18;;;;;;;9.1;5.9;;;;;;;21.02;61.41;;;;;
2023/09/05 09:46:18;;;;;;;6.9;3.8;;;;;;;21.09;63.7;;;;;
2023/09/05 09:56:19;;;;;;;6.9;3.8;;;;;;;21.39;62.94;;;;;
2023/09/05 10:06:18;;;;;;;6.9;3.8;;;;;;;21.61;60.09;;;;;
2023/09/05 10:16:19;;;;;;;8.6;3.4;;;;;;;21.5;58.54;;;;;
2023/09/05 10:27:18;;;;;;;8.6;3.4;;;;;;;21.48;58.82;;;;;
2023/09/05 10:37:18;;;;;;;8.6;3.4;;;;;;;21.92;59.73;;;;;
2023/09/05 10:48:19;;;;;;;5;2.9;;;;;;;22.48;55.17;;;;;
2023/09/05 10:58:19;;;;;;;5;2.9;;;;;;;22.32;53.01;;;;;
2023/09/05 11:09:18;;;;;;;5;2.9;;;;;;;22.46;51.1;;;;;
2023/09/05 11:19:19;;;;;;;4.7;2.3;;;;;;;22.34;51.05;;;;;
2023/09/05 11:29:19;;;;;;;;;;;;;;;;;;;;;
2023/09/05 11:40:25;;;;;;;;;;;;;;;;;;;;;
2023/09/05 11:51:19;;;;;;;;;;;;;;;;;;;;;
2023/09/05 12:01:19;;;;;;;5.2;2.7;;;;;;;22.71;47.82;;;;;
2023/09/05 12:12:19;;;;;;;5.2;2.7;;;;;;;22.64;50.93;;;;;
2023/09/05 12:22:19;;;;;;;5.1;2.9;;;;;;;22.63;50.62;;;;;
2023/09/05 12:33:19;;;;;;;5.1;2.9;;;;;;;23.21;50.85;;;;;
2023/09/05 12:43:19;;;;;;;4.6;2.5;;;;;;;23.41;50.95;;;;;
2023/09/05 12:54:19;;;;;;;4.6;2.5;;;;;;;23.58;51.63;;;;;
2023/09/05 13:04:19;;;;;;;4.6;2.5;;;;;;;23.52;50.16;;;;;
2023/09/05 13:14:19;;;;;;;5.8;3.6;;;;;;;23.66;52.5;;;;;
2023/09/05 13:24:19;;;;;;;5.8;3.6;;;;;;;23.08;49.98;;;;;
2023/09/05 13:35:19;;;;;;;5.8;3.6;;;;;;;23.8;50.98;;;;;
2023/09/05 13:46:19;;;;;;;4.6;2.8;;;;;;;23.32;48.01;;;;;
2023/09/05 13:57:19;;;;;;;;;;;;;;;;;;;;;
2023/09/05 14:07:19;;;;;;;4.6;2.8;;;;;;;24;46.93;;;;;
2023/09/05 14:17:19;;;;;;;4.5;2.5;;;;;;;23.68;47.7;;;;;
2023/09/05 14:28:20;;;;;;;4.5;2.5;;;;;;;23.43;47.5;;;;;
2023/09/05 14:39:19;;;;;;;4.5;2.5;;;;;;;23.85;46.21;;;;;
2023/09/05 14:49:19;;;;;;;4.6;2.2;;;;;;;24.19;46.42;;;;;
2023/09/05 15:00:20;;;;;;;4.6;2.2;;;;;;;24.18;48.58;;;;;
2023/09/05 15:11:19;;;;;;;4.6;2.2;;;;;;;26.08;44.17;;;;;
2023/09/05 15:22:19;;;;;;;5.3;2.6;;;;;;;28.12;40.77;;;;;
2023/09/05 15:32:19;;;;;;;5.3;2.6;;;;;;;27.92;39.75;;;;;
2023/09/05 15:42:19;;;;;;;5.3;2.6;;;;;;;29.02;37.8;;;;;
2023/09/05 15:53:20;;;;;;;6.2;2.8;;;;;;;29;38.37;;;;;
2023/09/05 16:04:19;;;;;;;6.2;2.8;;;;;;;28.95;38.88;;;;;
2023/09/05 16:14:20;;;;;;;6.7;3;;;;;;;29.73;38.7;;;;;
2023/09/05 16:25:19;;;;;;;6.7;3;;;;;;;28.73;39.53;;;;;
2023/09/05 16:35:19;;;;;;;6.7;3;;;;;;;25.96;44.46;;;;;
2023/09/05 16:46:19;;;;;;;12.1;7.8;;;;;;;24.03;49.81;;;;;
2023/09/05 16:56:20;;;;;;;12.1;7.8;;;;;;;22.6;53.2;;;;;
2023/09/05 17:06:19;;;;;;;12.1;7.8;;;;;;;21.7;56.65;;;;;
2023/09/05 17:17:19;;;;;;;7.3;4.9;;;;;;;20.66;60.03;;;;;
2023/09/05 17:28:19;;;;;;;7.3;4.9;;;;;;;19.58;65.14;;;;;
2023/09/05 17:39:19;;;;;;;7.3;4.9;;;;;;;18.8;67.41;;;;;
2023/09/05 17:50:19;;;;;;;8.6;5.8;;;;;;;18.08;69.2;;;;;
2023/09/05 18:00:19;;;;;;;8.6;5.8;;;;;;;17.56;71.06;;;;;
2023/09/05 18:11:19;;;;;;;8.6;5.8;;;;;;;17.13;72.97;;;;;
2023/09/05 18:21:19;;;;;;;9;6.5;;;;;;;16.85;74.31;;;;;
2023/09/05 18:32:20;;;;;;;9;6.5;;;;;;;16.67;75.31;;;;;
2023/09/05 18:43:19;;;;;;;9;6.5;;;;;;;16.5;75.41;;;;;
2023/09/05 18:54:19;;;;;;;9.2;6.1;;;;;;;16.31;76.01;;;;;
2023/09/05 19:05:19;;;;;;;9.2;6.1;;;;;;;15.96;76.03;;;;;
2023/09/05 19:16:19;;;;;;;10.6;7.2;;;;;;;15.72;76.14;;;;;
2023/09/05 19:27:19;;;;;;;10.6;7.2;;;;;;;15.35;76.79;;;;;
2023/09/05 19:37:19;;;;;;;10.6;7.2;;;;;;;14.97;77.75;;;;;
2023/09/05 19:47:19;;;;;;;10.3;6.9;;;;;;;14.62;79.74;;;;;
2023/09/05 19:57:19;;;;;;;10.3;6.9;;;;;;;14.34;82.12;;;;;
2023/09/05 20:08:19;;;;;;;10.3;6.9;;;;;;;14.15;84.38;;;;;
2023/09/05 20:18:19;;;;;;;8.6;5.8;;;;;;;14.03;84.36;;;;;
2023/09/05 20:29:19;;;;;;;8.6;5.8;;;;;;;13.73;82.95;;;;;
2023/09/05 20:40:19;;;;;;;8.6;5.8;;;;;;;13.54;84.07;;;;;
2023/09/05 20:50:19;;;;;;;9.1;4.5;;;;;;;13.29;84.01;;;;;
2023/09/05 21:01:20;;;;;;;9.1;4.5;;;;;;;13.07;84.26;;;;;
2023/09/05 21:11:19;;;;;;;9.1;4.5;;;;;;;12.88;85.18;;;;;
2023/09/05 21:21:19;;;;;;;11.2;4.3;;;;;;;12.76;87.29;;;;;
2023/09/05 21:32:19;;;;;;;11.2;4.3;;;;;;;12.75;88.19;;;;;
2023/09/05 21:42:20;;;;;;;11.2;4.3;;;;;;;12.6;89;;;;;
2023/09/05 21:53:19;;;;;;;11.2;5.4;;;;;;;12.49;88.81;;;;;
2023/09/05 22:03:19;;;;;;;11.2;5.4;;;;;;;12.44;89.29;;;;;
2023/09/05 22:14:22;;;;;;;8.6;5;;;;;;;12.43;89.88;;;;;
2023/09/05 22:25:19;;;;;;;8.6;5;;;;;;;12.29;89.88;;;;;
2023/09/05 22:35:19;;;;;;;8.6;5;;;;;;;12.21;89.33;;;;;
2023/09/05 22:46:19;;;;;;;8.3;4.7;;;;;;;11.99;89.2;;;;;
2023/09/05 22:56:19;;;;;;;8.3;4.7;;;;;;;11.92;88.77;;;;;
2023/09/05 23:06:19;;;;;;;8.3;4.7;;;;;;;11.85;89.33;;;;;
2023/09/05 23:17:19;;;;;;;11.2;6.1;;;;;;;11.74;89.77;;;;;
2023/09/05 23:28:19;;;;;;;11.2;6.1;;;;;;;11.59;89.84;;;;;
2023/09/05 23:38:21;;;;;;;11.2;6.1;;;;;;;11.47;90.03;;;;;
2023/09/05 23:49:19;;;;;;;8;4.3;;;;;;;11.33;89.97;;;;;
2023/09/05 23:59:20;;;;;;;8;4.3;;;;;;;11.04;90.93;;;;;
